Frederick, OK (73542)

2:33 PM CST on December 06, 2016 (GMT -0600)
Frederick Municipal | | Change Station

Elev 1253 ft 34.35 °N, 98.98 °W | Updated 40 minutes ago

Clear
Clear
46 °F
Feels Like 40 °F
N
15
Wind Variable Wind from North

Today
High -- | Low -- °F
--% Chance of Precip.
Yesterday
High -- | Low -- °F
Precip. -- in
Pressure 30.04 in
Visibility 10.0 miles
Clouds Clear
Windchill 40 °F
Dew Point 25 °F
Humidity 44%
Rainfall 0.00 in
Snow Depth Not available.
7:28 AM 5:25 PM
Waxing Crescent, 45% visible
METAR KFDR 061953Z AUTO 01013KT 10SM CLR 08/M04 A3003 RMK AO2 SLP170 T00781039
Pressure 30.04 in
Visibility 10.0 miles
Clouds Clear
Windchill 40 °F
Dew Point 25 °F
Humidity 44%
Rainfall 0.00 in
Snow Depth Not available.
7:28 AM 5:25 PM
Waxing Crescent, 45% visible
METAR KFDR 061953Z AUTO 01013KT 10SM CLR 08/M04 A3003 RMK AO2 SLP170 T00781039

10-Day Weather Forecast

Almanac

Astronomy

Dec. 06, 2016 Rise Set
Actual Time
Civil Twilight
Nautical Twilight
Astronomical Twilight
Moon
Length of Visible Light
Length of Day
Tomorrow will be .
, % of the Moon is Illuminated

Today's Extremes

State Highs State Lows

Community

WunderPhotos

Upload Photos

1,956,024 photos uploaded!

WunderBlog® & News

Nearby

Air Quality

  Air Quality AQ Index Pollutant
Not available.

Snow Depth

Station Depth Elevation

Earthquake Activity

City Distance Mag. Time & Date
Minimum magnitude displayed is 2.5.

Coastal Water Temperatures

Place Temperature

Stations

Nearby Weather Stations

Station Location Temp. Windchill Dew Point Humidity Wind Precip. Elev Updated Type
                   

Watches & Warnings

There are currently no watches in effect.